Time;durP1;ratioP1;P1;durP2;ratioP2;P2;SDS_P1;SDS_P2;PMS_P1;PMS_P2;Temp;Humidity;BMP_temperature;BMP_pressure;BME280_temperature;BME280_humidity;BME280_pressure;Samples;Min_cycle;Max_cycle;Signal;HPM_P1;HPM_P2
2022/06/20 00:01:46;;;;;;;6.13;2.22;;;16.10;92.00;;;;;;4937930;28;92426;-70
2022/06/20 00:04:17;;;;;;;7.07;1.80;;;16.10;92.00;;;;;;4936720;28;91772;-70
2022/06/20 00:06:49;;;;;;;8.15;2.40;;;16.10;92.00;;;;;;4937670;28;93023;-70
2022/06/20 00:09:15;;;;;;;6.60;2.10;;;16.10;92.10;;;;;;4937896;28;92854;-70
2022/06/20 00:11:46;;;;;;;4.47;3.05;;;16.10;92.10;;;;;;4935367;28;94844;-70
2022/06/20 00:14:16;;;;;;;5.65;1.77;;;16.10;92.20;;;;;;4936428;28;92436;-70
2022/06/20 00:16:44;;;;;;;3.25;2.67;;;16.10;92.20;;;;;;4937413;28;93086;-70
2022/06/20 00:19:11;;;;;;;5.82;3.03;;;16.00;92.20;;;;;;4937682;28;93053;-70
2022/06/20 00:21:39;;;;;;;7.75;2.35;;;16.00;92.20;;;;;;4937662;28;92357;-70
2022/06/20 00:24:07;;;;;;;6.85;1.98;;;16.00;92.20;;;;;;4936630;28;92439;-70
2022/06/20 00:26:35;;;;;;;5.07;2.40;;;15.90;92.30;;;;;;4937470;28;93247;-70
2022/06/20 00:29:05;;;;;;;6.32;3.55;;;15.90;92.40;;;;;;4937792;28;93041;-70
2022/06/20 00:31:32;;;;;;;4.53;1.73;;;15.90;92.50;;;;;;4936264;28;92449;-70
2022/06/20 00:33:59;;;;;;;4.05;1.83;;;15.70;92.60;;;;;;4937349;28;92395;-70
2022/06/20 00:36:27;;;;;;;3.50;2.72;;;15.70;92.70;;;;;;4936072;28;95573;-70
2022/06/20 00:38:56;;;;;;;4.22;1.83;;;15.70;92.80;;;;;;4936986;28;95520;-70
2022/06/20 00:41:26;;;;;;;3.95;2.65;;;15.60;92.90;;;;;;4919821;28;92608;-70
2022/06/20 00:43:54;;;;;;;4.13;2.00;;;15.60;92.90;;;;;;4937026;28;92433;-70
2022/06/20 00:46:24;;;;;;;5.10;2.22;;;15.60;93.00;;;;;;4935782;28;95343;-70
2022/06/20 00:49:14;;;;;;;8.65;2.72;;;15.70;93.10;;;;;;4937192;28;92929;-70
2022/06/20 00:52:14;;;;;;;8.02;2.75;;;15.70;93.00;;;;;;4937347;28;92330;-70
2022/06/20 00:54:59;;;;;;;4.88;2.65;;;15.80;93.00;;;;;;4937153;28;91726;-70
2022/06/20 00:57:35;;;;;;;8.52;3.42;;;15.70;93.20;;;;;;4935918;28;92545;-69
2022/06/20 01:00:08;;;;;;;5.68;2.35;;;15.70;93.20;;;;;;4937016;28;92886;-70
2022/06/20 01:02:43;;;;;;;5.47;1.60;;;15.80;93.20;;;;;;4935382;28;94822;-70
2022/06/20 01:05:18;;;;;;;5.28;2.17;;;15.80;93.20;;;;;;4935778;28;92515;-70
2022/06/20 01:08:13;;;;;;;6.30;2.90;;;15.90;93.30;;;;;;4936786;28;93309;-70
2022/06/20 01:10:54;;;;;;;4.50;3.92;;;15.90;93.40;;;;;;4936882;28;93063;-70
2022/06/20 01:13:23;;;;;;;5.93;2.25;;;16.00;93.50;;;;;;4937296;28;92365;-70
2022/06/20 01:15:53;;;;;;;8.05;2.20;;;15.90;93.60;;;;;;4936832;28;92439;-70
2022/06/20 01:18:33;;;;;;;6.50;2.53;;;15.90;93.60;;;;;;4935563;28;93112;-70
2022/06/20 01:21:11;;;;;;;6.07;2.00;;;15.90;93.50;;;;;;4935788;28;93061;-70
2022/06/20 01:24:23;;;;;;;7.47;2.30;;;15.90;93.70;;;;;;4935673;28;92595;-70
2022/06/20 01:27:11;;;;;;;6.25;2.42;;;15.90;93.80;;;;;;4935270;28;92548;-70
2022/06/20 01:29:38;;;;;;;6.63;2.58;;;15.90;93.80;;;;;;4934073;28;95476;-70
2022/06/20 01:32:05;;;;;;;7.28;2.17;;;15.90;93.90;;;;;;4936229;28;95757;-70
2022/06/20 01:34:34;;;;;;;7.88;3.78;;;15.90;93.90;;;;;;4936997;28;92744;-70
2022/06/20 01:37:24;;;;;;;6.00;3.08;;;15.90;94.00;;;;;;4936527;28;92427;-70
2022/06/20 01:39:55;;;;;;;5.18;2.97;;;15.90;94.00;;;;;;4936466;28;93157;-70
2022/06/20 01:42:23;;;;;;;5.97;2.80;;;15.90;94.20;;;;;;4936415;28;93066;-70
2022/06/20 01:44:52;;;;;;;7.38;2.17;;;15.80;94.20;;;;;;4935438;28;92895;-70
2022/06/20 01:47:20;;;;;;;5.50;2.72;;;15.80;94.30;;;;;;4936908;28;91690;-70
2022/06/20 01:49:52;;;;;;;7.55;2.47;;;15.80;94.30;;;;;;4936251;28;93087;-69
2022/06/20 01:52:24;;;;;;;6.40;3.38;;;15.80;94.40;;;;;;4937737;28;93081;-70
2022/06/20 01:55:07;;;;;;;8.15;2.75;;;15.80;94.40;;;;;;4938618;28;94764;-70
2022/06/20 01:57:37;;;;;;;4.95;2.40;;;15.80;94.50;;;;;;4940275;28;92714;-70
2022/06/20 02:00:11;;;;;;;9.13;2.60;;;15.70;94.60;;;;;;4921962;28;95688;-70
2022/06/20 02:02:42;;;;;;;6.22;2.90;;;15.70;94.70;;;;;;4939501;28;93066;-70
2022/06/20 02:05:16;;;;;;;9.30;3.35;;;15.70;94.80;;;;;;4939504;28;92775;-70
2022/06/20 02:07:43;;;;;;;;;;;15.60;95.00;;;;;;4922896;28;92672;-70
2022/06/20 02:10:16;;;;;;;10.93;3.75;;;15.50;95.30;;;;;;4940587;28;93360;-70
2022/06/20 02:12:46;;;;;;;8.98;3.90;;;15.40;95.50;;;;;;4939941;28;93041;-70
2022/06/20 02:15:18;;;;;;;6.57;2.70;;;15.40;95.50;;;;;;4954925;28;92483;-70
2022/06/20 02:17:47;;;;;;;5.38;2.90;;;15.40;95.70;;;;;;4939608;28;92865;-70
2022/06/20 02:20:21;;;;;;;5.95;2.90;;;15.40;95.80;;;;;;4938074;28;95512;-70
2022/06/20 02:22:49;;;;;;;7.32;3.20;;;15.30;95.90;;;;;;4939818;28;95257;-69
2022/06/20 02:25:21;;;;;;;11.30;2.80;;;15.20;96.00;;;;;;4938275;28;92513;-70
2022/06/20 02:27:54;;;;;;;7.10;2.70;;;15.30;96.10;;;;;;4939596;28;92437;-70
2022/06/20 02:30:21;;;;;;;6.38;2.75;;;15.20;96.20;;;;;;4953982;28;95808;-70
2022/06/20 02:33:02;;;;;;;7.75;2.75;;;15.20;96.30;;;;;;4939378;28;92999;-70
2022/06/20 02:35:29;;;;;;;11.15;3.42;;;15.20;96.30;;;;;;4939669;28;92458;-70
2022/06/20 02:37:56;;;;;;;9.05;2.88;;;15.10;96.40;;;;;;4938016;28;92245;-70
2022/06/20 02:40:25;;;;;;;6.43;4.15;;;15.10;96.50;;;;;;4939195;28;93396;-70
2022/06/20 02:43:14;;;;;;;7.10;3.15;;;15.00;96.60;;;;;;4938536;28;92992;-70
2022/06/20 02:45:43;;;;;;;9.25;3.63;;;15.00;96.60;;;;;;4938119;28;94863;-70
2022/06/20 02:48:12;;;;;;;8.32;3.25;;;14.90;96.90;;;;;;4939019;28;92940;-70
2022/06/20 02:50:45;;;;;;;8.10;2.90;;;14.90;97.00;;;;;;4937691;28;93401;-69
2022/06/20 02:53:36;;;;;;;8.17;2.50;;;14.80;97.00;;;;;;4937278;28;94755;-70
2022/06/20 02:56:05;;;;;;;6.70;3.97;;;14.80;97.30;;;;;;4939027;28;92456;-70
2022/06/20 02:58:35;;;;;;;7.38;3.08;;;14.70;97.30;;;;;;4921837;28;93100;-69
2022/06/20 03:01:13;;;;;;;6.35;3.10;;;14.70;97.40;;;;;;4937260;28;93181;-69
2022/06/20 03:03:44;;;;;;;6.53;4.15;;;14.70;97.50;;;;;;4938509;28;93851;-70
2022/06/20 03:06:17;;;;;;;8.85;4.70;;;14.60;97.60;;;;;;4938464;28;92392;-69
2022/06/20 03:08:44;;;;;;;3.57;2.30;;;14.60;97.70;;;;;;4939044;28;92349;-69
2022/06/20 03:11:11;;;;;;;6.40;2.60;;;14.60;98.00;;;;;;4937316;28;95542;-69
2022/06/20 03:13:40;;;;;;;7.07;4.20;;;14.50;97.70;;;;;;4938471;28;95413;-69
2022/06/20 03:16:08;;;;;;;7.85;2.75;;;14.50;97.60;;;;;;4953383;28;92532;-70
2022/06/20 03:18:44;;;;;;;4.97;2.60;;;14.50;97.70;;;;;;4937356;28;92406;-69
2022/06/20 03:21:12;;;;;;;6.25;2.60;;;14.50;97.70;;;;;;4938454;28;92337;-69
2022/06/20 03:23:39;;;;;;;5.85;2.92;;;14.40;97.60;;;;;;4938418;28;93045;-69
2022/06/20 03:26:19;;;;;;;5.20;2.60;;;14.40;97.60;;;;;;4936988;28;92592;-70
2022/06/20 03:28:46;;;;;;;7.07;2.92;;;14.40;97.50;;;;;;4939019;28;91734;-69
2022/06/20 03:31:13;;;;;;;5.75;3.83;;;14.30;97.50;;;;;;4938146;28;93126;-69
2022/06/20 03:33:41;;;;;;;7.80;3.30;;;14.30;97.50;;;;;;4938246;28;93117;-70
2022/06/20 03:36:22;;;;;;;5.22;3.08;;;14.30;97.40;;;;;;4935810;28;94923;-70
2022/06/20 03:38:50;;;;;;;5.88;2.50;;;14.30;97.40;;;;;;4938152;28;92603;-69
2022/06/20 03:41:21;;;;;;;6.07;2.75;;;14.20;97.40;;;;;;4936814;28;93222;-69
2022/06/20 03:44:15;;;;;;;6.65;3.75;;;14.20;97.40;;;;;;4938329;28;92718;-69
2022/06/20 03:47:06;;;;;;;8.27;2.65;;;14.30;97.40;;;;;;4920708;28;95932;-70
2022/06/20 03:49:48;;;;;;;4.85;2.58;;;14.30;97.50;;;;;;4936949;28;92520;-69
2022/06/20 03:52:22;;;;;;;6.85;2.60;;;14.40;97.60;;;;;;4937998;28;93673;-69
2022/06/20 03:54:59;;;;;;;9.10;2.70;;;14.60;97.40;;;;;;4938757;28;93076;-70
2022/06/20 03:57:38;;;;;;;4.85;1.95;;;15.10;97.10;;;;;;4938391;28;93002;-69
2022/06/20 04:00:11;;;;;;;6.40;2.03;;;15.60;96.00;;;;;;4936489;28;92433;-70
2022/06/20 04:02:54;;;;;;;7.35;2.80;;;16.00;95.20;;;;;;4934504;28;95254;-70
2022/06/20 04:05:24;;;;;;;4.13;2.10;;;16.30;94.30;;;;;;4937531;28;96404;-70
2022/06/20 04:08:06;;;;;;;6.05;2.63;;;16.50;93.90;;;;;;4936492;28;92483;-70
2022/06/20 04:10:58;;;;;;;8.85;3.00;;;16.50;93.50;;;;;;4936890;28;92485;-69
2022/06/20 04:13:50;;;;;;;6.28;2.05;;;16.50;93.50;;;;;;4936196;28;94566;-69
2022/06/20 04:16:31;;;;;;;7.20;3.95;;;16.40;93.10;;;;;;4937371;28;93044;-70
2022/06/20 04:19:06;;;;;;;5.03;2.08;;;16.30;93.40;;;;;;4938143;28;92572;-70
2022/06/20 04:21:48;;;;;;;6.45;3.20;;;16.30;93.70;;;;;;4938370;28;92289;-70
2022/06/20 04:24:26;;;;;;;4.80;2.97;;;16.30;93.40;;;;;;4919974;28;94811;-70
2022/06/20 04:27:46;;;;;;;4.95;2.63;;;16.20;93.70;;;;;;4937359;28;92493;-70
2022/06/20 04:30:30;;;;;;;6.90;2.47;;;16.20;93.30;;;;;;4908444;28;95862;-70
2022/06/20 04:33:30;;;;;;;3.05;1.80;;;16.10;93.60;;;;;;4936376;28;94452;-69
2022/06/20 04:36:06;;;;;;;5.63;2.42;;;16.10;93.50;;;;;;4924679;28;95914;-70
2022/06/20 04:38:41;;;;;;;4.35;2.00;;;16.10;93.60;;;;;;4935908;28;95633;-69
2022/06/20 04:41:17;;;;;;;6.05;3.13;;;16.10;93.50;;;;;;4936145;28;92547;-69
2022/06/20 04:43:50;;;;;;;5.05;2.08;;;16.10;93.50;;;;;;4936222;28;92473;-69
2022/06/20 04:46:27;;;;;;;6.55;2.35;;;16.10;93.50;;;;;;4937168;28;93189;-70
2022/06/20 04:48:56;;;;;;;5.95;2.50;;;16.20;93.50;;;;;;4936414;28;93222;-70
2022/06/20 04:51:37;;;;;;;5.40;3.35;;;16.10;93.50;;;;;;4937277;28;92621;-70
2022/06/20 04:54:08;;;;;;;9.70;4.43;;;16.20;93.50;;;;;;4936012;28;92572;-71
2022/06/20 04:56:35;;;;;;;7.78;3.38;;;16.30;93.50;;;;;;4950758;28;98168;-71
2022/06/20 04:59:06;;;;;;;7.90;3.20;;;16.40;93.30;;;;;;4936871;28;97139;-71
2022/06/20 05:01:35;;;;;;;5.82;3.88;;;16.40;93.10;;;;;;4936813;28;92351;-71
2022/06/20 05:04:16;;;;;;;7.50;2.90;;;16.50;93.10;;;;;;4936929;28;93005;-71
2022/06/20 05:06:43;;;;;;;9.52;3.88;;;16.50;92.80;;;;;;4935480;28;95799;-71
2022/06/20 05:09:15;;;;;;;6.75;3.15;;;16.50;92.80;;;;;;4935072;28;103290;-71
2022/06/20 05:11:49;;;;;;;8.60;2.78;;;16.50;92.70;;;;;;4935732;28;92514;-71
2022/06/20 05:14:42;;;;;;;6.82;2.78;;;16.50;92.70;;;;;;4937244;28;91608;-71
2022/06/20 05:17:21;;;;;;;9.77;3.43;;;16.60;92.70;;;;;;4932363;28;93244;-71
2022/06/20 05:19:53;;;;;;;7.20;2.92;;;16.50;92.90;;;;;;4919483;28;94078;-71
2022/06/20 05:22:26;;;;;;;5.57;3.35;;;16.60;92.90;;;;;;4935641;28;94736;-71
2022/06/20 05:24:56;;;;;;;5.97;2.58;;;16.60;92.80;;;;;;4935482;28;92542;-71
2022/06/20 05:27:33;;;;;;;6.15;2.30;;;16.70;92.80;;;;;;4935123;28;93190;-71
2022/06/20 05:30:01;;;;;;;5.72;4.00;;;16.90;92.60;;;;;;4935268;28;95565;-71
2022/06/20 05:32:40;;;;;;;6.40;3.30;;;17.00;92.40;;;;;;4936688;28;93257;-71
2022/06/20 05:35:14;;;;;;;8.23;3.75;;;17.20;92.00;;;;;;4936958;28;92379;-71
2022/06/20 05:37:58;;;;;;;6.55;2.67;;;17.30;92.00;;;;;;4936519;28;93031;-71
2022/06/20 05:40:35;;;;;;;6.95;3.15;;;17.50;91.80;;;;;;4935389;28;95499;-71
2022/06/20 05:43:02;;;;;;;8.27;3.50;;;17.50;91.70;;;;;;4936806;28;92343;-71
2022/06/20 05:45:30;;;;;;;8.10;3.05;;;17.60;91.70;;;;;;4936219;28;106254;-71
2022/06/20 05:48:01;;;;;;;7.25;3.33;;;17.70;91.30;;;;;;4933963;28;96244;-71
2022/06/20 05:50:39;;;;;;;11.52;4.20;;;17.90;90.80;;;;;;4934740;28;96635;-71
2022/06/20 05:53:23;;;;;;;6.78;3.70;;;18.00;90.90;;;;;;4936692;28;92449;-71
2022/06/20 05:55:54;;;;;;;7.40;4.00;;;18.10;90.60;;;;;;4935101;28;92562;-71
2022/06/20 05:58:29;;;;;;;6.15;3.22;;;18.10;90.50;;;;;;4936187;28;93151;-71
2022/06/20 06:01:02;;;;;;;5.82;3.28;;;18.20;90.50;;;;;;4935242;28;93034;-71
2022/06/20 06:03:47;;;;;;;9.17;4.07;;;18.20;90.20;;;;;;4936047;28;92632;-71
2022/06/20 06:06:22;;;;;;;5.75;3.00;;;18.20;90.20;;;;;;4936827;28;91693;-71
2022/06/20 06:08:56;;;;;;;6.07;3.75;;;18.00;88.50;;;;;;4918659;28;95941;-71
2022/06/20 06:11:44;;;;;;;9.00;5.18;;;17.90;89.90;;;;;;4936115;28;93080;-72
2022/06/20 06:14:35;;;;;;;10.02;3.60;;;17.90;90.10;;;;;;4935321;28;94890;-71
2022/06/20 06:17:22;;;;;;;9.50;3.65;;;18.00;90.30;;;;;;4934919;28;92484;-71
2022/06/20 06:20:30;;;;;;;9.00;4.03;;;18.00;89.50;;;;;;4948661;28;94134;-71
2022/06/20 06:23:00;;;;;;;10.10;3.53;;;17.90;90.30;;;;;;4936045;28;93050;-71
2022/06/20 06:25:37;;;;;;;10.25;4.25;;;17.80;90.40;;;;;;4934578;28;92524;-71
2022/06/20 06:28:13;;;;;;;11.32;4.57;;;17.80;90.30;;;;;;4936162;28;92583;-71
2022/06/20 06:30:53;;;;;;;10.43;4.78;;;17.80;90.30;;;;;;4935702;28;92995;-71
2022/06/20 06:33:47;;;;;;;9.60;4.70;;;17.80;90.10;;;;;;4936112;28;95291;-71
2022/06/20 06:36:40;;;;;;;7.28;4.43;;;17.80;89.40;;;;;;4936307;28;92469;-71
2022/06/20 06:39:06;;;;;;;11.20;4.45;;;17.80;89.10;;;;;;4938187;28;92473;-71
2022/06/20 06:41:41;;;;;;;12.50;4.60;;;17.90;89.30;;;;;;4937726;28;95547;-71
2022/06/20 06:44:33;;;;;;;8.98;3.67;;;18.20;89.20;;;;;;4937806;28;97881;-71
2022/06/20 06:47:02;;;;;;;9.15;4.60;;;18.60;88.60;;;;;;4937842;28;92480;-71
2022/06/20 06:49:36;;;;;;;12.05;5.80;;;18.70;87.50;;;;;;4938950;28;92989;-71
2022/06/20 06:52:38;;;;;;;9.48;4.15;;;19.00;86.80;;;;;;4937731;28;94234;-71
2022/06/20 06:55:17;;;;;;;10.25;3.15;;;19.10;85.10;;;;;;4937879;28;93092;-71
2022/06/20 06:57:49;;;;;;;9.43;4.22;;;19.20;84.80;;;;;;4938895;28;92354;-71
2022/06/20 07:00:38;;;;;;;8.25;3.40;;;19.10;83.90;;;;;;4939603;28;91609;-71
2022/06/20 07:03:15;;;;;;;8.13;4.05;;;19.20;83.90;;;;;;4938610;28;93314;-71
2022/06/20 07:05:48;;;;;;;6.47;3.22;;;19.40;83.30;;;;;;4938782;28;93190;-71
2022/06/20 07:08:46;;;;;;;8.00;4.30;;;19.50;82.00;;;;;;4937941;28;95384;-71
2022/06/20 07:11:22;;;;;;;8.88;3.78;;;19.40;81.50;;;;;;4939005;28;92438;-71
2022/06/20 07:14:25;;;;;;;6.40;3.47;;;19.40;79.80;;;;;;4938552;28;93144;-71
2022/06/20 07:17:24;;;;;;;7.25;3.30;;;19.50;79.40;;;;;;4882370;28;94434;-71
2022/06/20 07:19:52;;;;;;;7.05;3.25;;;19.50;77.90;;;;;;4937335;28;92433;-71
2022/06/20 07:22:22;;;;;;;6.43;2.63;;;19.20;77.80;;;;;;4937384;28;92992;-71
2022/06/20 07:24:51;;;;;;;5.70;2.80;;;19.10;79.30;;;;;;4938385;28;93202;-71
2022/06/20 07:27:39;;;;;;;6.40;3.97;;;19.00;79.20;;;;;;4937421;28;95438;-71
2022/06/20 07:30:12;;;;;;;7.43;2.75;;;19.10;80.00;;;;;;4938799;28;92429;-71
2022/06/20 07:32:40;;;;;;;7.40;2.70;;;19.20;80.00;;;;;;4938582;28;92378;-71
2022/06/20 07:35:17;;;;;;;3.90;2.28;;;19.30;77.30;;;;;;4935847;28;97520;-71
2022/06/20 07:37:56;;;;;;;6.00;2.88;;;19.30;76.90;;;;;;4937004;28;96418;-71
2022/06/20 07:40:34;;;;;;;9.02;3.45;;;19.50;77.00;;;;;;4938511;28;92458;-71
2022/06/20 07:43:12;;;;;;;8.02;4.65;;;19.90;76.70;;;;;;4936992;28;93001;-71
2022/06/20 07:45:46;;;;;;;7.45;2.72;;;20.00;76.60;;;;;;4938043;28;93165;-71
2022/06/20 07:48:37;;;;;;;7.07;3.75;;;20.10;76.20;;;;;;4953108;28;92785;-71
2022/06/20 07:51:19;;;;;;;8.73;4.13;;;20.00;76.60;;;;;;4935790;28;92578;-71
2022/06/20 07:54:02;;;;;;;5.28;3.40;;;19.90;76.40;;;;;;4938546;28;92279;-71
2022/06/20 07:56:45;;;;;;;8.05;2.70;;;19.90;76.20;;;;;;4938122;28;93119;-71
2022/06/20 07:59:21;;;;;;;6.37;3.17;;;20.00;76.40;;;;;;4952971;28;95640;-71
2022/06/20 08:02:10;;;;;;;6.57;4.35;;;20.20;76.40;;;;;;4936994;28;94849;-71
2022/06/20 08:04:39;;;;;;;5.35;4.55;;;20.60;76.30;;;;;;4936759;28;93058;-71
2022/06/20 08:07:21;;;;;;;9.85;3.63;;;20.70;75.40;;;;;;4937824;28;94295;-71
2022/06/20 08:09:58;;;;;;;4.70;2.65;;;20.80;74.40;;;;;;4937571;28;93028;-71
2022/06/20 08:13:17;;;;;;;9.88;5.28;;;21.10;74.60;;;;;;4937879;28;92458;-71
2022/06/20 08:15:53;;;;;;;8.88;3.90;;;21.80;73.10;;;;;;4933918;28;92464;-71
2022/06/20 08:18:22;;;;;;;6.32;2.90;;;23.20;69.80;;;;;;4937677;28;93179;-72
2022/06/20 08:20:56;;;;;;;4.43;3.22;;;24.20;66.70;;;;;;4952803;28;93068;-72
2022/06/20 08:23:46;;;;;;;4.72;3.80;;;25.00;65.00;;;;;;4953087;28;92936;-72
2022/06/20 08:26:19;;;;;;;5.40;2.67;;;25.90;62.40;;;;;;4936579;28;92474;-72
2022/06/20 08:28:57;;;;;;;6.40;2.30;;;26.10;62.10;;;;;;4934618;28;98435;-72
2022/06/20 08:31:40;;;;;;;6.60;2.50;;;25.90;59.60;;;;;;4952525;28;95321;-72
2022/06/20 08:34:31;;;;;;;5.27;3.40;;;25.40;59.50;;;;;;4938112;28;93151;-71
2022/06/20 08:37:06;;;;;;;7.35;3.08;;;24.90;61.60;;;;;;4937277;28;92448;-72
2022/06/20 08:39:40;;;;;;;5.35;2.58;;;25.20;62.00;;;;;;4935912;28;94288;-72
2022/06/20 08:42:25;;;;;;;6.82;3.72;;;25.50;61.40;;;;;;4936267;28;93110;-72
2022/06/20 08:45:03;;;;;;;13.02;3.70;;;26.10;59.40;;;;;;4937332;28;93343;-72
2022/06/20 08:47:42;;;;;;;4.30;3.05;;;27.10;56.70;;;;;;4937801;28;92165;-72
2022/06/20 08:50:21;;;;;;;3.90;2.67;;;27.30;55.00;;;;;;4937420;28;93386;-72
2022/06/20 08:53:20;;;;;;;5.13;2.55;;;27.00;54.20;;;;;;4937404;28;92903;-72
2022/06/20 08:55:56;;;;;;;6.32;2.28;;;26.10;56.50;;;;;;4934438;28;94917;-69
2022/06/20 08:58:36;;;;;;;3.95;1.77;;;25.70;57.90;;;;;;4937379;28;92429;-70
2022/06/20 09:01:14;;;;;;;4.32;2.42;;;25.30;58.80;;;;;;4935496;28;95873;-69
2022/06/20 09:04:19;;;;;;;3.30;2.95;;;24.70;60.40;;;;;;4936747;28;93103;-69
2022/06/20 09:07:17;;;;;;;2.30;1.55;;;24.20;60.00;;;;;;4936042;28;92558;-69
2022/06/20 09:10:10;;;;;;;3.60;2.50;;;24.00;59.40;;;;;;4936889;28;92469;-69
2022/06/20 09:12:43;;;;;;;3.35;2.72;;;24.10;59.80;;;;;;4921010;28;93275;-69
2022/06/20 09:15:32;;;;;;;;;;;24.40;59.00;;;;;;4937778;28;91826;-69
2022/06/20 09:18:02;;;;;;;1.90;1.17;;;24.20;58.60;;;;;;4969309;28;92524;-69
2022/06/20 09:20:56;;;;;;;3.20;1.80;;;24.00;57.30;;;;;;4935392;28;92522;-69
2022/06/20 09:23:40;;;;;;;4.18;2.05;;;24.00;58.20;;;;;;4935654;28;95728;-69
2022/06/20 09:26:31;;;;;;;3.60;1.80;;;24.00;59.10;;;;;;4919077;28;98230;-69
2022/06/20 09:29:36;;;;;;;2.28;1.30;;;23.60;59.50;;;;;;4936379;28;92462;-69
2022/06/20 09:32:21;;;;;;;4.82;1.80;;;23.70;58.30;;;;;;4935513;28;92467;-69
2022/06/20 09:34:50;;;;;;;2.47;2.22;;;23.80;58.40;;;;;;4918993;28;95990;-69
2022/06/20 09:37:38;;;;;;;5.63;3.10;;;23.50;59.10;;;;;;4936296;28;92968;-69
2022/06/20 09:40:47;;;;;;;4.10;1.83;;;23.30;60.40;;;;;;4935393;28;92381;-69
2022/06/20 09:43:40;;;;;;;5.75;2.83;;;23.00;60.60;;;;;;4935532;28;91689;-69
2022/06/20 09:46:16;;;;;;;4.20;1.77;;;22.80;61.00;;;;;;4935309;28;93113;-69
2022/06/20 09:49:20;;;;;;;3.25;1.50;;;22.60;61.90;;;;;;4936528;28;93036;-69
2022/06/20 09:52:10;;;;;;;4.18;2.78;;;22.70;62.10;;;;;;4934129;28;95009;-69
2022/06/20 09:54:44;;;;;;;4.65;2.90;;;22.60;63.50;;;;;;4936601;28;92387;-69
2022/06/20 09:57:32;;;;;;;4.05;1.70;;;22.90;63.80;;;;;;4935092;28;93306;-71
2022/06/20 10:00:05;;;;;;;5.60;3.30;;;23.10;62.70;;;;;;4935087;28;92998;-72
2022/06/20 10:02:47;;;;;;;3.85;1.73;;;23.10;62.30;;;;;;4934079;28;92494;-71
2022/06/20 10:05:32;;;;;;;4.28;1.73;;;22.90;62.90;;;;;;4936514;28;92977;-71
2022/06/20 10:08:08;;;;;;;3.03;1.77;;;22.70;63.20;;;;;;4935849;28;93259;-72
2022/06/20 10:10:42;;;;;;;6.40;1.85;;;22.60;63.40;;;;;;4936297;28;93014;-71
2022/06/20 10:13:15;;;;;;;5.97;1.90;;;22.60;61.10;;;;;;4937186;28;92557;-71
2022/06/20 10:15:56;;;;;;;5.35;2.88;;;22.50;60.10;;;;;;4939999;28;92534;-72
2022/06/20 10:18:35;;;;;;;5.05;2.00;;;22.50;60.10;;;;;;4938565;28;95178;-71
2022/06/20 10:21:05;;;;;;;5.95;2.22;;;22.60;61.20;;;;;;4939243;28;95315;-71
2022/06/20 10:23:32;;;;;;;2.67;2.22;;;22.60;61.60;;;;;;4939775;28;92463;-71
2022/06/20 10:26:28;;;;;;;3.83;1.77;;;22.60;61.30;;;;;;4937621;28;98908;-71
2022/06/20 10:29:32;;;;;;;2.05;1.77;;;22.60;58.40;;;;;;4939197;28;93294;-71
2022/06/20 10:32:09;;;;;;;4.32;2.95;;;22.70;58.80;;;;;;4939281;28;92417;-71
2022/06/20 10:34:48;;;;;;;3.38;2.00;;;22.70;59.10;;;;;;4939598;28;92355;-71
2022/06/20 10:37:27;;;;;;;2.80;2.58;;;22.60;57.50;;;;;;4922141;28;91754;-71
2022/06/20 10:40:31;;;;;;;3.28;1.83;;;22.80;58.10;;;;;;4938865;28;93310;-71
2022/06/20 10:43:15;;;;;;;4.20;1.92;;;23.00;58.10;;;;;;4939138;28;92566;-71
2022/06/20 10:45:54;;;;;;;3.40;2.75;;;23.10;59.80;;;;;;4936853;28;94882;-71
2022/06/20 10:49:09;;;;;;;6.25;2.10;;;23.00;61.10;;;;;;4939322;28;92503;-71
2022/06/20 10:52:10;;;;;;;4.22;2.65;;;22.90;61.60;;;;;;4934156;28;96129;-71
2022/06/20 10:55:02;;;;;;;5.22;2.88;;;23.00;61.00;;;;;;4937648;28;95789;-72
2022/06/20 10:57:51;;;;;;;3.90;2.22;;;23.00;59.60;;;;;;4939074;28;92439;-71
2022/06/20 11:00:22;;;;;;;3.95;2.40;;;23.10;60.60;;;;;;4937938;28;92441;-71
2022/06/20 11:03:08;;;;;;;4.68;1.85;;;23.00;60.90;;;;;;4938416;28;93343;-71
2022/06/20 11:06:13;;;;;;;5.07;2.65;;;23.10;61.80;;;;;;4938045;28;93125;-71
2022/06/20 11:08:56;;;;;;;3.63;2.67;;;22.80;62.30;;;;;;4918920;28;92560;-71
2022/06/20 11:11:40;;;;;;;2.78;1.50;;;22.50;62.10;;;;;;4939108;28;92442;-71
2022/06/20 11:14:26;;;;;;;5.35;2.75;;;22.40;62.10;;;;;;4937392;28;95884;-71
2022/06/20 11:16:59;;;;;;;2.75;2.22;;;22.40;61.70;;;;;;4937254;28;97976;-71
2022/06/20 11:19:59;;;;;;;4.30;2.13;;;22.50;60.80;;;;;;4938616;28;92387;-72
2022/06/20 11:22:41;;;;;;;7.90;2.42;;;22.70;58.80;;;;;;4937449;28;92533;-71
2022/06/20 11:25:46;;;;;;;3.03;1.83;;;22.80;59.20;;;;;;4937103;28;93257;-71
2022/06/20 11:28:13;;;;;;;2.88;2.00;;;23.00;60.60;;;;;;4938326;28;92557;-71
2022/06/20 11:31:10;;;;;;;3.67;1.73;;;23.10;60.00;;;;;;4937112;28;92520;-71
2022/06/20 11:34:01;;;;;;;3.60;3.25;;;23.20;57.30;;;;;;4937716;28;92312;-71
2022/06/20 11:36:38;;;;;;;4.47;2.90;;;23.20;59.70;;;;;;4938591;28;93282;-71
2022/06/20 11:39:07;;;;;;;3.70;3.35;;;23.10;60.20;;;;;;4938407;28;93005;-71
2022/06/20 11:41:50;;;;;;;4.05;3.25;;;23.20;60.90;;;;;;4937519;28;95151;-71
2022/06/20 11:44:45;;;;;;;3.03;1.70;;;23.30;59.70;;;;;;4938360;28;92467;-71
2022/06/20 11:47:51;;;;;;;3.53;2.40;;;23.40;59.90;;;;;;4938136;28;92446;-71
2022/06/20 11:50:40;;;;;;;2.15;1.30;;;23.20;57.90;;;;;;4907287;28;92664;-71
2022/06/20 11:53:36;;;;;;;2.38;1.55;;;22.80;58.30;;;;;;4938181;28;92335;-71
2022/06/20 11:56:21;;;;;;;3.80;1.83;;;22.70;58.40;;;;;;4937095;28;92725;-71
2022/06/20 11:59:16;;;;;;;4.07;2.00;;;22.80;59.80;;;;;;4936663;28;93323;-69
2022/06/20 12:02:16;;;;;;;3.75;2.22;;;22.80;59.80;;;;;;4938631;28;91988;-69
2022/06/20 12:04:55;;;;;;;6.28;2.65;;;23.00;58.90;;;;;;4936691;28;92468;-69
2022/06/20 12:08:05;;;;;;;3.83;3.53;;;22.90;57.90;;;;;;4923338;28;92617;-69
2022/06/20 12:10:37;;;;;;;4.28;1.73;;;22.70;58.00;;;;;;4936758;28;95650;-69
2022/06/20 12:13:37;;;;;;;3.50;2.53;;;22.60;59.40;;;;;;4937769;28;95355;-69
2022/06/20 12:16:38;;;;;;;3.78;1.98;;;22.40;59.50;;;;;;4937905;28;92377;-68
2022/06/20 12:25:15;;;;;;;2.88;1.70;;;22.00;60.00;;;;;;4936615;28;93031;-69
2022/06/20 12:27:46;;;;;;;4.73;2.90;;;22.40;60.30;;;;;;4937938;28;92511;-69
2022/06/20 12:30:15;;;;;;;3.30;2.00;;;22.30;60.50;;;;;;4936425;28;91798;-69
2022/06/20 12:32:46;;;;;;;3.17;2.33;;;22.40;60.80;;;;;;4936221;28;92494;-69
2022/06/20 12:35:26;;;;;;;2.45;2.25;;;22.40;60.10;;;;;;4935718;28;95582;-69
2022/06/20 12:38:17;;;;;;;4.05;2.85;;;22.40;57.70;;;;;;4936529;28;94902;-69
2022/06/20 12:40:48;;;;;;;2.53;1.52;;;22.40;58.50;;;;;;4936109;28;92568;-69
2022/06/20 12:43:25;;;;;;;2.88;2.67;;;22.60;56.60;;;;;;4919777;28;94395;-69
2022/06/20 12:46:08;;;;;;;4.55;2.30;;;22.70;56.00;;;;;;4936091;28;93087;-69
2022/06/20 12:48:47;;;;;;;5.43;2.55;;;23.10;57.30;;;;;;4936090;28;92484;-69
2022/06/20 12:51:52;;;;;;;7.47;2.03;;;23.10;58.50;;;;;;4937292;28;92443;-69
2022/06/20 12:54:42;;;;;;;2.63;2.30;;;22.80;61.80;;;;;;4937003;28;93306;-69
2022/06/20 12:57:30;;;;;;;4.70;2.85;;;22.50;62.40;;;;;;4937408;28;92972;-69
2022/06/20 13:00:18;;;;;;;2.25;1.75;;;22.50;56.50;;;;;;4935985;28;92507;-69
2022/06/20 13:03:03;;;;;;;8.90;3.38;;;22.60;56.90;;;;;;4935413;28;92449;-69
2022/06/20 13:05:41;;;;;;;4.15;2.45;;;22.60;60.20;;;;;;4935419;28;95453;-69
2022/06/20 13:08:44;;;;;;;3.85;3.15;;;22.50;62.30;;;;;;4935460;28;97846;-69
2022/06/20 13:11:24;;;;;;;5.68;2.30;;;22.60;61.80;;;;;;4936900;28;92427;-69
2022/06/20 13:13:54;;;;;;;3.88;2.00;;;22.50;63.10;;;;;;4935674;28;92448;-69
2022/06/20 13:16:54;;;;;;;3.42;2.53;;;22.30;60.30;;;;;;4936506;28;93291;-69
2022/06/20 13:19:42;;;;;;;2.13;1.63;;;22.30;59.30;;;;;;4935147;28;94048;-69
2022/06/20 13:22:23;;;;;;;3.33;1.80;;;22.40;58.10;;;;;;4935389;28;92507;-69
2022/06/20 13:25:30;;;;;;;4.68;1.90;;;22.60;60.40;;;;;;4936332;28;91712;-69
2022/06/20 13:28:18;;;;;;;3.50;1.75;;;22.70;60.90;;;;;;4935400;28;94378;-69
2022/06/20 13:30:45;;;;;;;2.42;1.63;;;22.70;61.20;;;;;;4935065;28;94059;-69
2022/06/20 13:33:24;;;;;;;2.92;1.80;;;22.60;61.90;;;;;;4918345;28;94919;-69
2022/06/20 13:36:14;;;;;;;4.93;2.58;;;22.70;61.10;;;;;;4935512;28;92433;-69
2022/06/20 13:38:49;;;;;;;3.60;2.40;;;22.50;62.30;;;;;;4919186;28;95885;-69
2022/06/20 13:41:40;;;;;;;3.85;3.35;;;22.20;62.10;;;;;;4936715;28;92952;-69
2022/06/20 13:44:43;;;;;;;4.80;3.30;;;22.10;64.20;;;;;;4936915;28;93039;-68
2022/06/20 13:47:21;;;;;;;2.80;2.17;;;21.90;64.90;;;;;;4936721;28;92429;-69
2022/06/20 13:50:13;;;;;;;3.50;2.10;;;21.80;65.30;;;;;;4954650;28;93335;-69
2022/06/20 13:53:07;;;;;;;2.85;2.05;;;21.90;65.50;;;;;;4940318;28;93025;-69
2022/06/20 13:55:55;;;;;;;5.25;2.50;;;21.90;66.10;;;;;;4939540;28;92993;-69
2022/06/20 13:58:42;;;;;;;4.47;2.10;;;21.70;66.60;;;;;;4938946;28;92446;-69
2022/06/20 14:01:15;;;;;;;4.97;2.95;;;21.60;66.90;;;;;;4937211;28;98302;-69